Time;durP1;ratioP1;P1;durP2;ratioP2;P2;SDS_P1;SDS_P2;PMS_P1;PMS_P2;Temp;Humidity;BMP_temperature;BMP_pressure;BME280_temperature;BME280_humidity;BME280_pressure;Samples;Min_cycle;Max_cycle;Signal;HPM_P1;HPM_P2
2021/05/08 00:01:34;;;;;;;23.85;6.45;;;;;;;-145.71;100.00;60690.53;5012071;28;20026;-75
2021/05/08 00:04:00;;;;;;;22.70;6.85;;;;;;;-145.71;100.00;60690.53;5013180;28;20109;-75
2021/05/08 00:06:25;;;;;;;29.90;6.40;;;;;;;-145.71;100.00;60690.53;5011870;28;20621;-75
2021/05/08 00:08:50;;;;;;;20.10;6.53;;;;;;;-145.71;100.00;60690.53;4994163;28;20030;-75
2021/05/08 00:11:16;;;;;;;31.33;7.05;;;;;;;-145.71;100.00;60690.53;5012042;28;20437;-75
2021/05/08 00:13:41;;;;;;;19.08;7.28;;;;;;;-145.71;100.00;60690.53;4993838;28;20425;-75
2021/05/08 00:16:06;;;;;;;29.80;8.35;;;;;;;-145.71;100.00;60690.53;5011460;28;20065;-75
2021/05/08 00:18:32;;;;;;;19.17;5.80;;;;;;;-145.71;100.00;60690.53;4993691;28;20068;-75
2021/05/08 00:20:57;;;;;;;27.60;7.35;;;;;;;-145.71;100.00;60690.53;5019532;28;20059;-76
2021/05/08 00:23:23;;;;;;;18.23;5.15;;;;;;;-145.71;100.00;60690.53;5031189;28;20029;-76
2021/05/08 00:25:48;;;;;;;19.50;6.57;;;;;;;-145.71;100.00;60690.53;5023401;28;20457;-75
2021/05/08 00:28:13;;;;;;;25.27;7.30;;;;;;;-145.71;100.00;60690.53;5011608;28;20026;-75
2021/05/08 00:30:38;;;;;;;32.75;8.20;;;;;;;-145.71;100.00;60690.53;4993786;28;20069;-75
2021/05/08 00:33:04;;;;;;;26.90;6.03;;;;;;;-145.71;100.00;60690.53;5012532;28;20061;-74
2021/05/08 00:35:29;;;;;;;17.35;6.35;;;;;;;-145.71;100.00;60690.53;5011374;28;20323;-75
2021/05/08 00:37:55;;;;;;;28.10;7.18;;;;;;;-145.71;100.00;60690.53;5011605;28;20022;-75
2021/05/08 00:40:20;;;;;;;19.02;5.93;;;;;;;-145.71;100.00;60690.53;5011462;28;20041;-75
2021/05/08 00:42:47;;;;;;;27.88;8.40;;;;;;;-145.71;100.00;60690.53;4993352;28;20367;-75
2021/05/08 00:45:13;;;;;;;25.17;7.07;;;;;;;-145.71;100.00;60690.53;5012185;28;20018;-76
2021/05/08 00:47:43;;;;;;;23.23;6.68;;;;;;;-145.71;100.00;60690.53;5011022;28;20478;-75
2021/05/08 00:50:10;;;;;;;21.48;6.57;;;;;;;-145.71;100.00;60690.53;5011117;28;20116;-75
2021/05/08 00:52:37;;;;;;;27.05;6.20;;;;;;;-145.71;100.00;60690.53;4993168;28;20472;-75
2021/05/08 00:55:04;;;;;;;28.63;6.90;;;;;;;-145.71;100.00;60690.53;5011083;28;20034;-75
2021/05/08 00:57:30;;;;;;;24.35;6.38;;;;;;;-145.71;100.00;60690.53;4993152;28;20041;-75
2021/05/08 00:59:55;;;;;;;23.55;7.20;;;;;;;-145.71;100.00;60690.53;5024688;28;20477;-75
2021/05/08 01:02:21;;;;;;;21.13;5.80;;;;;;;-145.71;100.00;60690.53;5028788;28;20051;-75
2021/05/08 01:04:47;;;;;;;26.02;6.68;;;;;;;-145.71;100.00;60690.53;5013834;28;20036;-75
2021/05/08 01:07:12;;;;;;;29.20;7.78;;;;;;;-145.71;100.00;60690.53;4993119;28;20038;-75
2021/05/08 01:09:37;;;;;;;24.40;6.15;;;;;;;-145.71;100.00;60690.53;5010764;28;20037;-76
2021/05/08 01:12:03;;;;;;;21.95;6.85;;;;;;;-145.71;100.00;60690.53;5010433;28;20038;-75
2021/05/08 01:14:29;;;;;;;15.75;5.97;;;;;;;-145.71;100.00;60690.53;5025362;28;20117;-76
2021/05/08 01:16:54;;;;;;;23.85;6.65;;;;;;;-145.71;100.00;60690.53;4992404;28;20049;-75
2021/05/08 01:19:20;;;;;;;14.77;5.00;;;;;;;-145.71;100.00;60690.53;5010577;28;20072;-75
2021/05/08 01:21:46;;;;;;;20.55;6.35;;;;;;;-145.71;100.00;60690.53;5023997;28;20099;-75
2021/05/08 01:24:12;;;;;;;21.70;5.95;;;;;;;-145.71;100.00;60690.53;5029986;28;20108;-76
2021/05/08 01:26:37;;;;;;;29.80;7.53;;;;;;;-145.71;100.00;60690.53;5030175;28;20040;-75
2021/05/08 01:29:04;;;;;;;25.90;6.15;;;;;;;-145.71;100.00;60690.53;5030228;28;20544;-76
2021/05/08 01:31:29;;;;;;;13.95;5.80;;;;;;;-145.71;100.00;60690.53;5030176;28;20482;-75
2021/05/08 01:33:54;;;;;;;22.13;5.90;;;;;;;-145.71;100.00;60690.53;5020738;28;20034;-75
2021/05/08 01:36:20;;;;;;;21.85;6.63;;;;;;;-145.71;100.00;60690.53;5018634;28;20475;-75
2021/05/08 01:38:46;;;;;;;23.88;7.03;;;;;;;-145.71;100.00;60690.53;5010140;28;20136;-76
2021/05/08 01:41:11;;;;;;;23.45;6.60;;;;;;;-145.71;100.00;60690.53;5009959;28;20030;-76
2021/05/08 01:43:37;;;;;;;19.80;5.72;;;;;;;-145.71;100.00;60690.53;5010202;28;20512;-75
2021/05/08 01:46:03;;;;;;;21.48;8.05;;;;;;;-145.71;100.00;60690.53;5009789;28;20026;-75
2021/05/08 01:48:30;;;;;;;28.20;6.60;;;;;;;-145.71;100.00;60690.53;4990436;28;20449;-75
2021/05/08 01:50:56;;;;;;;22.27;5.15;;;;;;;-145.71;100.00;60690.53;4990762;28;20038;-75
2021/05/08 01:53:22;;;;;;;16.33;5.50;;;;;;;-145.71;100.00;60690.53;5012298;28;20041;-75
2021/05/08 01:55:49;;;;;;;21.75;6.28;;;;;;;-145.71;100.00;60690.53;5024666;28;20036;-75
2021/05/08 01:58:14;;;;;;;26.27;6.13;;;;;;;-145.71;100.00;60690.53;5009766;28;20037;-75
2021/05/08 02:00:42;;;;;;;22.52;6.15;;;;;;;-145.71;100.00;60690.53;5009859;28;20041;-76
2021/05/08 02:03:08;;;;;;;15.65;6.72;;;;;;;-145.71;100.00;60690.53;5019596;28;20029;-75
2021/05/08 02:05:35;;;;;;;22.10;6.13;;;;;;;-145.71;100.00;60690.53;5009789;28;20460;-76
2021/05/08 02:08:03;;;;;;;23.20;6.10;;;;;;;-145.71;100.00;60690.53;4991703;28;20095;-75
2021/05/08 02:10:30;;;;;;;23.85;5.97;;;;;;;-145.71;100.00;60690.53;4991851;28;20133;-75
2021/05/08 02:12:57;;;;;;;16.73;5.85;;;;;;;-145.71;100.00;60690.53;5009506;28;20038;-75
2021/05/08 02:15:22;;;;;;;15.82;4.60;;;;;;;-145.71;100.00;60690.53;5009569;28;20026;-75
2021/05/08 02:17:48;;;;;;;14.77;4.88;;;;;;;-145.71;100.00;60690.53;4991402;28;20651;-75
2021/05/08 02:20:26;;;;;;;42.78;10.43;;;;;;;-145.71;100.00;60690.53;5009269;28;20069;-75
2021/05/08 02:22:53;;;;;;;24.88;6.22;;;;;;;-145.71;100.00;60690.53;4991553;28;20061;-75
2021/05/08 02:25:19;;;;;;;18.13;5.28;;;;;;;-145.71;100.00;60690.53;5009400;28;20030;-75
2021/05/08 02:27:45;;;;;;;20.20;5.72;;;;;;;-145.71;100.00;60690.53;5009547;28;20034;-75
2021/05/08 02:30:13;;;;;;;25.65;6.35;;;;;;;-145.71;100.00;60690.53;5024758;28;20036;-75
2021/05/08 02:32:39;;;;;;;29.75;6.75;;;;;;;-145.71;100.00;60690.53;5021768;28;20030;-75
2021/05/08 02:35:06;;;;;;;21.00;6.32;;;;;;;-145.71;100.00;60690.53;5009178;28;20532;-75
2021/05/08 02:37:32;;;;;;;25.27;5.18;;;;;;;-145.71;100.00;60690.53;5009043;28;20034;-76
2021/05/08 02:39:58;;;;;;;19.40;5.80;;;;;;;-145.71;100.00;60690.53;5008755;28;20145;-75
2021/05/08 02:42:23;;;;;;;24.77;7.63;;;;;;;-145.71;100.00;60690.53;5009130;28;20034;-76
2021/05/08 02:44:48;;;;;;;31.27;6.30;;;;;;;-145.71;100.00;60690.53;5009273;28;20037;-75
2021/05/08 02:47:19;;;;;;;17.83;4.97;;;;;;;-145.71;100.00;60690.53;5008954;28;20057;-75
2021/05/08 02:49:49;;;;;;;23.85;5.18;;;;;;;-145.71;100.00;60690.53;5023624;28;20026;-75
2021/05/08 02:52:15;;;;;;;17.73;4.97;;;;;;;-145.71;100.00;60690.53;5008896;28;20045;-75
2021/05/08 02:54:41;;;;;;;40.65;9.82;;;;;;;-145.71;100.00;60690.53;4991178;28;20040;-76
2021/05/08 02:57:07;;;;;;;19.17;5.30;;;;;;;-145.71;100.00;60690.53;5019361;28;20041;-75
2021/05/08 02:59:33;;;;;;;20.52;4.60;;;;;;;-145.71;100.00;60690.53;5018264;28;20571;-75
2021/05/08 03:01:58;;;;;;;31.45;6.07;;;;;;;-145.71;100.00;60690.53;5008788;28;20484;-75
2021/05/08 03:04:23;;;;;;;20.38;5.63;;;;;;;-145.71;100.00;60690.53;5008673;28;20029;-75
2021/05/08 03:06:49;;;;;;;19.77;5.88;;;;;;;-145.71;100.00;60690.53;5009106;28;20029;-75
2021/05/08 03:09:14;;;;;;;24.52;6.82;;;;;;;-145.71;100.00;60690.53;5012503;28;20044;-75
2021/05/08 03:11:40;;;;;;;18.33;7.22;;;;;;;-145.71;100.00;60690.53;5028471;28;20048;-76
2021/05/08 03:14:06;;;;;;;20.25;5.07;;;;;;;-145.71;100.00;60690.53;5028493;28;20029;-75
2021/05/08 03:16:31;;;;;;;16.40;4.72;;;;;;;-145.71;100.00;60690.53;5008901;28;20026;-76
2021/05/08 03:18:57;;;;;;;30.17;6.03;;;;;;;-145.71;100.00;60690.53;5028196;28;20029;-75
2021/05/08 03:21:22;;;;;;;19.58;6.05;;;;;;;-145.71;100.00;60690.53;5028430;28;20166;-75
2021/05/08 03:23:47;;;;;;;29.98;7.53;;;;;;;-145.71;100.00;60690.53;5015016;28;20038;-75
2021/05/08 03:26:12;;;;;;;16.08;4.72;;;;;;;-145.71;100.00;60690.53;5008646;28;20124;-76
2021/05/08 03:28:38;;;;;;;27.90;5.80;;;;;;;-145.71;100.00;60690.53;5002360;28;20029;-75
2021/05/08 03:31:03;;;;;;;16.38;5.20;;;;;;;-145.71;100.00;60690.53;5008526;28;20034;-75
2021/05/08 03:33:28;;;;;;;20.00;5.68;;;;;;;-145.71;100.00;60690.53;5008547;28;20041;-75
2021/05/08 03:35:54;;;;;;;16.25;5.03;;;;;;;-145.71;100.00;60690.53;5008560;28;20040;-76
2021/05/08 03:38:19;;;;;;;15.80;5.47;;;;;;;-145.71;100.00;60690.53;4990469;28;20034;-75
2021/05/08 03:40:44;;;;;;;22.15;5.80;;;;;;;-145.71;100.00;60690.53;5008556;28;20212;-76
2021/05/08 03:43:10;;;;;;;25.25;5.65;;;;;;;-145.71;100.00;60690.53;5008231;28;20045;-75
2021/05/08 03:45:35;;;;;;;25.02;7.65;;;;;;;-145.71;100.00;60690.53;5008389;28;20029;-75
2021/05/08 03:48:00;;;;;;;23.15;6.45;;;;;;;-145.71;100.00;60690.53;5008378;28;20026;-76
2021/05/08 03:50:26;;;;;;;29.13;6.97;;;;;;;-145.71;100.00;60690.53;5012341;28;20045;-75
2021/05/08 03:52:51;;;;;;;22.88;6.47;;;;;;;-145.71;100.00;60690.53;5008371;28;20118;-75
2021/05/08 03:55:16;;;;;;;23.50;7.82;;;;;;;-145.71;100.00;60690.53;5018650;28;20053;-76
2021/05/08 03:57:42;;;;;;;28.17;5.32;;;;;;;-145.71;100.00;60690.53;5026650;28;20035;-75
2021/05/08 04:00:08;;;;;;;25.48;6.65;;;;;;;-145.71;100.00;60690.53;5013765;28;20128;-75
2021/05/08 04:02:33;;;;;;;23.67;7.15;;;;;;;-145.71;100.00;60690.53;5011907;28;20437;-76
2021/05/08 04:04:58;;;;;;;16.23;5.07;;;;;;;-145.71;100.00;60690.53;5026788;28;20429;-75
2021/05/08 04:07:23;;;;;;;16.63;5.18;;;;;;;-145.71;100.00;60690.53;5011896;28;20065;-76
2021/05/08 04:09:49;;;;;;;21.98;6.38;;;;;;;-145.71;100.00;60690.53;5026431;28;20111;-76
2021/05/08 04:12:14;;;;;;;21.40;5.57;;;;;;;-145.71;100.00;60690.53;5011910;28;20245;-75
2021/05/08 04:14:39;;;;;;;20.42;8.07;;;;;;;-145.71;100.00;60690.53;5011630;28;20045;-75
2021/05/08 04:17:05;;;;;;;22.60;7.43;;;;;;;-145.71;100.00;60690.53;4993832;28;20119;-75
2021/05/08 04:19:30;;;;;;;23.95;5.88;;;;;;;-145.71;100.00;60690.53;5012407;28;20041;-75
2021/05/08 04:21:55;;;;;;;21.67;6.05;;;;;;;-145.71;100.00;60690.53;5012524;28;20029;-75
2021/05/08 04:24:21;;;;;;;20.05;5.63;;;;;;;-145.71;100.00;60690.53;5022543;28;20437;-75
2021/05/08 04:26:46;;;;;;;25.75;7.72;;;;;;;-145.71;100.00;60690.53;5030144;28;20026;-76
2021/05/08 04:29:11;;;;;;;16.08;4.97;;;;;;;-145.71;100.00;60690.53;5026119;28;20030;-75
2021/05/08 04:31:36;;;;;;;28.80;5.47;;;;;;;-145.71;100.00;60690.53;5011719;28;20055;-75
2021/05/08 04:34:02;;;;;;;22.52;5.72;;;;;;;-145.71;100.00;60690.53;5011371;28;20080;-75
2021/05/08 04:36:27;;;;;;;17.67;5.50;;;;;;;-145.71;100.00;60690.53;5011213;28;20065;-75
2021/05/08 04:38:53;;;;;;;24.38;5.28;;;;;;;-145.71;100.00;60690.53;5013596;28;20120;-75
2021/05/08 04:41:18;;;;;;;19.45;5.03;;;;;;;-145.71;100.00;60690.53;5011229;28;20204;-75
2021/05/08 04:43:43;;;;;;;21.55;5.55;;;;;;;-145.71;100.00;60690.53;5011315;28;20030;-75
2021/05/08 04:46:09;;;;;;;20.42;5.50;;;;;;;-145.71;100.00;60690.53;5012397;28;20498;-75
2021/05/08 04:48:34;;;;;;;20.92;5.75;;;;;;;-145.71;100.00;60690.53;5011407;28;20036;-75
2021/05/08 04:51:01;;;;;;;14.68;5.00;;;;;;;-145.71;100.00;60690.53;5010997;28;20581;-75
2021/05/08 04:53:27;;;;;;;19.50;5.07;;;;;;;-145.71;100.00;60690.53;4994265;28;20030;-75
2021/05/08 04:55:52;;;;;;;22.02;4.53;;;;;;;-145.71;100.00;60690.53;5012101;28;20393;-75
2021/05/08 04:58:19;;;;;;;25.88;5.88;;;;;;;-145.71;100.00;60690.53;5010970;28;20025;-75
2021/05/08 05:00:44;;;;;;;16.65;5.18;;;;;;;-145.71;100.00;60690.53;5029581;28;20033;-75
2021/05/08 05:03:09;;;;;;;23.05;5.40;;;;;;;-145.71;100.00;60690.53;5012238;28;20104;-75
2021/05/08 05:05:35;;;;;;;17.10;5.65;;;;;;;-145.71;100.00;60690.53;5012581;28;20045;-75
2021/05/08 05:08:00;;;;;;;17.10;4.85;;;;;;;-145.71;100.00;60690.53;5028831;28;20112;-75
2021/05/08 05:10:26;;;;;;;20.95;5.07;;;;;;;-145.71;100.00;60690.53;5030730;28;20504;-75
2021/05/08 05:12:51;;;;;;;20.75;4.85;;;;;;;-145.71;100.00;60690.53;5029905;28;20473;-75
2021/05/08 05:15:18;;;;;;;21.63;5.72;;;;;;;-145.71;100.00;60690.53;5030449;28;20033;-75
2021/05/08 05:17:44;;;;;;;26.13;6.18;;;;;;;-145.71;100.00;60690.53;5028438;28;20493;-75
2021/05/08 05:20:11;;;;;;;15.70;5.53;;;;;;;-145.71;100.00;60690.53;5011949;28;20044;-75
2021/05/08 05:22:37;;;;;;;18.00;6.57;;;;;;;-145.71;100.00;60690.53;5012158;28;20036;-76
2021/05/08 05:25:03;;;;;;;14.40;5.22;;;;;;;-145.71;100.00;60690.53;5030028;28;20029;-75
2021/05/08 05:27:30;;;;;;;16.83;5.40;;;;;;;-145.71;100.00;60690.53;5029912;28;20037;-75
2021/05/08 05:29:55;;;;;;;16.13;5.05;;;;;;;-145.71;100.00;60690.53;5018206;28;20084;-75
2021/05/08 05:32:21;;;;;;;27.23;5.05;;;;;;;-145.71;100.00;60690.53;4992535;28;20025;-75
2021/05/08 05:34:46;;;;;;;18.95;5.18;;;;;;;-145.71;100.00;60690.53;4992504;28;20053;-75
2021/05/08 05:37:11;;;;;;;14.98;5.07;;;;;;;-145.71;100.00;60690.53;5025922;28;20175;-76
2021/05/08 05:39:37;;;;;;;18.25;5.07;;;;;;;-145.71;100.00;60690.53;4992231;28;20044;-75
2021/05/08 05:42:02;;;;;;;14.55;4.28;;;;;;;-145.71;100.00;60690.53;5007932;28;20040;-75
2021/05/08 05:44:28;;;;;;;16.38;3.88;;;;;;;-145.71;100.00;60690.53;5011959;28;20045;-75
2021/05/08 05:46:53;;;;;;;11.43;4.00;;;;;;;-145.71;100.00;60690.53;5029823;28;20032;-76
2021/05/08 05:49:19;;;;;;;15.75;4.07;;;;;;;-145.71;100.00;60690.53;5029969;28;20042;-76
2021/05/08 05:51:44;;;;;;;17.35;4.88;;;;;;;-145.71;100.00;60690.53;5011778;28;20084;-75
2021/05/08 05:54:09;;;;;;;17.52;4.00;;;;;;;-145.71;100.00;60690.53;5027409;28;20655;-75
2021/05/08 05:56:35;;;;;;;14.63;5.30;;;;;;;-145.71;100.00;60690.53;5027776;28;20460;-75
2021/05/08 05:59:00;;;;;;;19.65;4.07;;;;;;;-145.71;100.00;60690.53;5025291;28;20473;-75
2021/05/08 06:01:25;;;;;;;15.93;5.63;;;;;;;-145.71;100.00;60690.53;5009679;28;20022;-75
2021/05/08 06:03:51;;;;;;;22.95;4.43;;;;;;;-145.71;100.00;60690.53;5011354;28;20026;-75
2021/05/08 06:06:17;;;;;;;13.85;4.40;;;;;;;-145.71;100.00;60690.53;5009793;28;20026;-75
2021/05/08 06:08:42;;;;;;;21.55;5.20;;;;;;;-145.71;100.00;60690.53;5022566;28;20075;-75
2021/05/08 06:11:07;;;;;;;19.25;4.18;;;;;;;-145.71;100.00;60690.53;5029400;28;20021;-75
2021/05/08 06:13:33;;;;;;;14.50;5.32;;;;;;;-145.71;100.00;60690.53;5011564;28;20041;-75
2021/05/08 06:15:59;;;;;;;16.55;5.28;;;;;;;-145.71;100.00;60690.53;5011109;28;20092;-75
2021/05/08 06:18:25;;;;;;;23.48;4.80;;;;;;;-145.71;100.00;60690.53;5027676;28;20537;-75
2021/05/08 06:20:50;;;;;;;23.88;5.47;;;;;;;-145.71;100.00;60690.53;5028482;28;20140;-75
2021/05/08 06:23:16;;;;;;;19.90;4.78;;;;;;;-145.71;100.00;60690.53;5008738;28;20097;-75
2021/05/08 06:25:41;;;;;;;18.00;4.25;;;;;;;-145.71;100.00;60690.53;5026935;28;20040;-75
2021/05/08 06:28:07;;;;;;;20.98;5.00;;;;;;;-145.71;100.00;60690.53;5028970;28;20041;-75
2021/05/08 06:30:32;;;;;;;23.08;6.35;;;;;;;-145.71;100.00;60690.53;5025238;28;20030;-75
2021/05/08 06:32:57;;;;;;;22.42;5.40;;;;;;;-145.71;100.00;60690.53;5010317;28;20033;-75
2021/05/08 06:35:23;;;;;;;25.85;5.13;;;;;;;-145.71;100.00;60690.53;5013810;28;20056;-75
2021/05/08 06:37:51;;;;;;;15.15;4.05;;;;;;;-145.71;100.00;60690.53;4997300;28;20026;-75
2021/05/08 06:40:17;;;;;;;21.88;5.05;;;;;;;-145.71;100.00;60690.53;4990738;28;20129;-75
2021/05/08 06:42:42;;;;;;;19.35;4.70;;;;;;;-145.71;100.00;60690.53;4991662;28;20549;-75
2021/05/08 06:45:08;;;;;;;19.95;4.85;;;;;;;-145.71;100.00;60690.53;5009131;28;20520;-75
2021/05/08 06:47:33;;;;;;;19.48;4.78;;;;;;;-145.71;100.00;60690.53;4991197;28;20216;-75
2021/05/08 06:49:58;;;;;;;15.93;4.07;;;;;;;-145.71;100.00;60690.53;5009494;28;20121;-75
2021/05/08 06:52:24;;;;;;;14.10;4.00;;;;;;;-145.71;100.00;60690.53;5008946;28;20468;-75
2021/05/08 06:54:50;;;;;;;16.15;3.97;;;;;;;-145.71;100.00;60690.53;5008539;28;20041;-75
2021/05/08 06:57:16;;;;;;;19.13;4.30;;;;;;;-145.71;100.00;60690.53;5009010;28;20030;-75
2021/05/08 06:59:41;;;;;;;27.00;4.80;;;;;;;-145.71;100.00;60690.53;5008896;28;20038;-74
2021/05/08 07:02:07;;;;;;;16.25;4.43;;;;;;;-145.71;100.00;60690.53;5008969;28;20137;-75
2021/05/08 07:04:33;;;;;;;16.10;5.15;;;;;;;-145.71;100.00;60690.53;5000995;28;20034;-75
2021/05/08 07:06:58;;;;;;;14.57;4.68;;;;;;;-145.71;100.00;60690.53;5008321;28;20030;-75
2021/05/08 07:09:23;;;;;;;17.02;4.18;;;;;;;-145.71;100.00;60690.53;5008403;28;20029;-75
2021/05/08 07:11:49;;;;;;;20.00;4.72;;;;;;;-145.71;100.00;60690.53;4990804;28;20539;-75
2021/05/08 07:14:14;;;;;;;25.30;3.88;;;;;;;-145.71;100.00;60690.53;4990869;28;20032;-75
2021/05/08 07:16:39;;;;;;;14.35;3.78;;;;;;;-145.71;100.00;60690.53;5008739;28;20426;-75
2021/05/08 07:19:05;;;;;;;14.95;4.43;;;;;;;-145.71;100.00;60690.53;5008722;28;20387;-76
2021/05/08 07:21:30;;;;;;;18.85;4.15;;;;;;;-145.71;100.00;60690.53;5008258;28;20029;-75
2021/05/08 07:23:56;;;;;;;13.32;3.55;;;;;;;-145.71;100.00;60690.53;5008610;28;20026;-75
2021/05/08 07:26:21;;;;;;;17.92;3.63;;;;;;;-145.71;100.00;60690.53;5008502;28;20375;-76
2021/05/08 07:28:47;;;;;;;18.42;4.32;;;;;;;-145.71;100.00;60690.53;5008795;28;20049;-75
2021/05/08 07:31:12;;;;;;;16.40;4.32;;;;;;;-145.71;100.00;60690.53;4987779;28;20038;-75
2021/05/08 07:33:38;;;;;;;11.48;4.97;;;;;;;-145.71;100.00;60690.53;5019396;28;20030;-75
2021/05/08 07:36:04;;;;;;;17.23;4.00;;;;;;;-145.71;100.00;60690.53;5014714;28;20033;-75
2021/05/08 07:38:29;;;;;;;12.93;3.13;;;;;;;-145.71;100.00;60690.53;5012791;28;20033;-76
2021/05/08 07:40:54;;;;;;;13.77;3.00;;;;;;;-145.71;100.00;60690.53;5018365;28;20064;-75
2021/05/08 07:43:21;;;;;;;11.82;3.72;;;;;;;-145.71;100.00;60690.53;5010299;28;20061;-75
2021/05/08 07:45:48;;;;;;;6.65;2.15;;;;;;;-145.71;100.00;60690.53;5030010;28;20033;-76
2021/05/08 07:48:14;;;;;;;12.75;2.50;;;;;;;-145.71;100.00;60690.53;5004716;28;20038;-75
2021/05/08 07:50:40;;;;;;;10.00;2.80;;;;;;;-145.71;100.00;60690.53;5029048;28;20040;-75
2021/05/08 07:53:06;;;;;;;11.50;3.05;;;;;;;-145.71;100.00;60690.53;5030780;28;20047;-75
2021/05/08 07:55:32;;;;;;;15.70;4.20;;;;;;;-145.71;100.00;60690.53;5031776;28;20025;-75
2021/05/08 07:57:58;;;;;;;14.05;3.30;;;;;;;-145.71;100.00;60690.53;5013907;28;20040;-76
2021/05/08 08:00:23;;;;;;;11.75;3.72;;;;;;;-145.71;100.00;60690.53;5031910;28;20033;-75
2021/05/08 08:02:49;;;;;;;9.05;2.60;;;;;;;-145.71;100.00;60690.53;5012284;28;20455;-75
2021/05/08 08:05:16;;;;;;;11.85;4.00;;;;;;;-145.71;100.00;60690.53;5026999;28;20522;-75
2021/05/08 08:07:41;;;;;;;10.38;2.80;;;;;;;-145.71;100.00;60690.53;4995565;28;20026;-75
2021/05/08 08:10:08;;;;;;;15.93;3.30;;;;;;;-145.71;100.00;60690.53;5021946;28;20031;-75
2021/05/08 08:12:34;;;;;;;20.10;3.80;;;;;;;-145.71;100.00;60690.53;5031265;28;20099;-75
2021/05/08 08:14:59;;;;;;;11.73;3.28;;;;;;;-145.71;100.00;60690.53;5031051;28;20524;-75
2021/05/08 08:17:24;;;;;;;11.00;3.20;;;;;;;-145.71;100.00;60690.53;5031415;28;20033;-75
2021/05/08 08:19:50;;;;;;;12.32;2.95;;;;;;;-145.71;100.00;60690.53;5028199;28;20029;-75
2021/05/08 08:22:16;;;;;;;4.85;2.63;;;;;;;-145.71;100.00;60690.53;5025709;28;20852;-75
2021/05/08 08:24:43;;;;;;;10.75;3.22;;;;;;;-145.71;100.00;60690.53;5031437;28;20026;-75
2021/05/08 08:27:09;;;;;;;13.35;2.58;;;;;;;-145.71;100.00;60690.53;5025600;28;20064;-75
2021/05/08 08:29:35;;;;;;;11.75;2.55;;;;;;;-145.71;100.00;60690.53;4999032;28;20398;-75
2021/05/08 08:32:00;;;;;;;15.55;3.00;;;;;;;-145.71;100.00;60690.53;5031158;28;20037;-76
2021/05/08 08:34:25;;;;;;;11.95;2.75;;;;;;;-145.71;100.00;60690.53;5010290;28;20025;-75
2021/05/08 08:36:51;;;;;;;10.68;2.17;;;;;;;-145.71;100.00;60690.53;5025368;28;20095;-74
2021/05/08 08:39:16;;;;;;;8.80;2.80;;;;;;;-145.71;100.00;60690.53;5013224;28;20497;-75
2021/05/08 08:41:41;;;;;;;11.50;2.70;;;;;;;-145.71;100.00;60690.53;5024201;28;20374;-74
2021/05/08 08:44:10;;;;;;;9.70;3.13;;;;;;;-145.71;100.00;60690.53;5011373;28;20998;-75
2021/05/08 08:46:41;;;;;;;9.32;2.63;;;;;;;-145.71;100.00;60690.53;5010461;28;20030;-75
2021/05/08 08:49:06;;;;;;;11.90;3.50;;;;;;;-145.71;100.00;60690.53;4993561;28;20414;-75
2021/05/08 08:51:31;;;;;;;8.95;3.60;;;;;;;-145.71;100.00;60690.53;5013736;28;20105;-76
2021/05/08 08:53:58;;;;;;;7.22;2.50;;;;;;;-145.71;100.00;60690.53;4995712;28;20026;-75
2021/05/08 08:56:25;;;;;;;9.52;3.28;;;;;;;-145.71;100.00;60690.53;5010902;28;20029;-75
2021/05/08 08:58:56;;;;;;;11.07;3.50;;;;;;;-145.71;100.00;60690.53;5011144;28;20062;-75
2021/05/08 09:01:22;;;;;;;12.65;2.80;;;;;;;-145.71;100.00;60690.53;5012587;28;20041;-75
2021/05/08 09:03:47;;;;;;;11.05;3.30;;;;;;;-145.71;100.00;60690.53;5029059;28;20048;-75
2021/05/08 09:06:13;;;;;;;10.55;2.50;;;;;;;-145.71;100.00;60690.53;5012521;28;20032;-75
2021/05/08 09:08:38;;;;;;;10.10;2.40;;;;;;;-145.71;100.00;60690.53;5030584;28;20480;-75
2021/05/08 09:11:23;;;;;;;9.93;2.10;;;;;;;-145.71;100.00;60690.53;5013717;28;20088;-75
2021/05/08 09:14:21;;;;;;;8.00;2.30;;;;;;;-145.71;100.00;60690.53;5010673;28;20509;-75
2021/05/08 09:17:05;;;;;;;10.40;2.53;;;;;;;-145.71;100.00;60690.53;5010741;28;20034;-75
2021/05/08 09:19:31;;;;;;;9.98;2.45;;;;;;;-145.71;100.00;60690.53;5011717;28;20137;-75
2021/05/08 09:21:57;;;;;;;6.05;2.00;;;;;;;-145.71;100.00;60690.53;5011137;28;20386;-75
2021/05/08 09:24:22;;;;;;;6.88;2.45;;;;;;;-145.71;100.00;60690.53;5028646;28;20044;-75
2021/05/08 09:26:50;;;;;;;10.70;2.08;;;;;;;-145.71;100.00;60690.53;5012149;28;20034;-74
2021/05/08 09:29:17;;;;;;;6.63;2.47;;;;;;;-145.71;100.00;60690.53;5010575;28;20029;-75
2021/05/08 09:31:57;;;;;;;7.32;2.65;;;;;;;-145.71;100.00;60690.53;5030070;28;20040;-75
2021/05/08 09:34:22;;;;;;;11.23;3.22;;;;;;;-145.71;100.00;60690.53;5024756;28;20030;-75
2021/05/08 09:36:55;;;;;;;17.77;3.20;;;;;;;-145.71;100.00;60690.53;5017596;28;20052;-75
2021/05/08 09:39:31;;;;;;;9.05;3.15;;;;;;;-145.71;100.00;60690.53;5030007;28;20032;-74
2021/05/08 09:41:57;;;;;;;6.40;2.50;;;;;;;-145.71;100.00;60690.53;5030158;28;20033;-75
2021/05/08 09:44:22;;;;;;;11.68;4.07;;;;;;;-145.71;100.00;60690.53;5029905;28;20379;-75
2021/05/08 09:46:47;;;;;;;7.18;2.40;;;;;;;-145.71;100.00;60690.53;5022294;28;20041;-75
2021/05/08 09:49:15;;;;;;;7.65;2.38;;;;;;;-145.71;100.00;60690.53;4991843;28;20041;-75
2021/05/08 09:51:40;;;;;;;9.25;2.25;;;;;;;-145.71;100.00;60690.53;5008856;28;20398;-74
2021/05/08 09:54:08;;;;;;;6.88;2.75;;;;;;;-145.71;100.00;60690.53;5010288;28;20036;-74
2021/05/08 09:56:34;;;;;;;10.15;2.65;;;;;;;-145.71;100.00;60690.53;5010930;28;20057;-75
2021/05/08 09:59:26;;;;;;;13.13;2.92;;;;;;;-145.71;100.00;60690.53;5018033;28;20053;-75
2021/05/08 10:02:04;;;;;;;6.68;2.20;;;;;;;-145.71;100.00;60690.53;5029585;28;20080;-75
2021/05/08 10:04:44;;;;;;;7.20;2.17;;;;;;;-145.71;100.00;60690.53;5009887;28;20129;-76
2021/05/08 10:07:16;;;;;;;8.13;2.10;;;;;;;-145.71;100.00;60690.53;4994372;28;20052;-75
2021/05/08 10:09:46;;;;;;;8.57;2.40;;;;;;;-145.71;100.00;60690.53;5024639;28;20033;-75
2021/05/08 10:12:13;;;;;;;8.45;2.45;;;;;;;-145.71;100.00;60690.53;5013354;28;20040;-75
2021/05/08 10:14:40;;;;;;;8.75;2.90;;;;;;;-145.71;100.00;60690.53;5016314;28;20056;-75
2021/05/08 10:17:08;;;;;;;10.48;2.72;;;;;;;-145.71;100.00;60690.53;5009849;28;20040;-76
2021/05/08 10:19:37;;;;;;;13.38;2.20;;;;;;;-145.71;100.00;60690.53;4990082;28;20030;-76
2021/05/08 10:22:06;;;;;;;11.85;3.45;;;;;;;-145.71;100.00;60690.53;4989621;28;20026;-76
2021/05/08 10:24:32;;;;;;;10.30;2.65;;;;;;;-145.71;100.00;60690.53;4989731;28;20030;-76
2021/05/08 10:26:58;;;;;;;5.93;2.00;;;;;;;-145.71;100.00;60690.53;4972060;28;20394;-76
2021/05/08 10:29:27;;;;;;;7.45;2.58;;;;;;;-145.71;100.00;60690.53;4989664;28;20033;-76
2021/05/08 10:31:55;;;;;;;8.10;2.03;;;;;;;-145.71;100.00;60690.53;4989781;28;20483;-76
2021/05/08 10:34:33;;;;;;;8.48;2.00;;;;;;;-145.71;100.00;60690.53;4989744;28;20026;-77
2021/05/08 10:37:12;;;;;;;7.53;2.63;;;;;;;-145.71;100.00;60690.53;4989644;28;20026;-76
2021/05/08 10:39:51;;;;;;;9.00;3.85;;;;;;;-145.71;100.00;60690.53;4971931;28;20141;-76
2021/05/08 10:42:39;;;;;;;6.15;2.15;;;;;;;-145.71;100.00;60690.53;4972268;28;20044;-76
2021/05/08 10:45:07;;;;;;;5.30;2.00;;;;;;;-145.71;100.00;60690.53;4989484;28;20168;-76
2021/05/08 10:50:38;;;;;;;6.75;1.90;;;;;;;-145.71;100.00;60690.53;4989595;28;20054;-76
2021/05/08 10:53:12;;;;;;;5.72;2.85;;;;;;;-145.71;100.00;60690.53;4989008;28;20054;-76
2021/05/08 10:55:45;;;;;;;7.65;1.85;;;;;;;-145.71;100.00;60690.53;4986517;28;20150;-76
2021/05/08 10:58:13;;;;;;;7.40;2.38;;;;;;;-145.71;100.00;60690.53;4987394;28;20069;-76
2021/05/08 11:00:58;;;;;;;8.52;2.00;;;;;;;-145.71;100.00;60690.53;4986166;28;20034;-76
2021/05/08 11:03:27;;;;;;;8.32;1.90;;;;;;;-145.71;100.00;60690.53;4989358;28;20026;-76